createdAt,value
2023-03-04T00:00:12.157Z,102609.66
2023-03-04T00:02:39.212Z,102609.19
2023-03-04T00:05:07.245Z,102606.84
2023-03-04T00:07:34.266Z,102611.97
2023-03-04T00:10:01.348Z,102611.06
2023-03-04T00:12:28.434Z,102610.88
2023-03-04T00:14:55.453Z,102609.28
2023-03-04T00:17:22.467Z,102604.66
2023-03-04T00:19:49.762Z,102610.78
2023-03-04T00:22:16.733Z,102605.66
2023-03-04T00:24:43.680Z,102606.75
2023-03-04T00:27:10.702Z,102608.56
2023-03-04T00:29:37.667Z,102606.75
2023-03-04T00:32:04.972Z,102616.28
2023-03-04T00:34:32.936Z,102606.84
2023-03-04T00:37:01.637Z,102599.81
2023-03-04T00:39:28.841Z,102607.66
2023-03-04T00:41:55.961Z,102604.16
2023-03-04T00:44:22.941Z,102601.81
2023-03-04T00:46:50.014Z,102606.84
2023-03-04T00:49:17.014Z,102604.84
2023-03-04T00:51:44.012Z,102604.94
2023-03-04T00:54:11.092Z,102604.44
2023-03-04T00:56:38.056Z,102613.97
2023-03-04T00:59:05.279Z,102609.28
2023-03-04T01:01:32.429Z,102620.81
2023-03-04T01:03:59.419Z,102612.06
2023-03-04T01:06:26.391Z,102614.31
2023-03-04T01:08:53.647Z,102615.31
2023-03-04T01:11:20.693Z,102618.63
2023-03-04T01:13:48.529Z,102620.03
2023-03-04T01:16:15.713Z,102612.25
2023-03-04T01:18:42.749Z,102607.22
2023-03-04T01:21:09.796Z,102615.22
2023-03-04T01:23:36.756Z,102608.19
2023-03-04T01:26:04.580Z,102605.75
2023-03-04T01:28:35.765Z,102601.44
2023-03-04T01:31:03.903Z,102607.38
2023-03-04T01:33:31.646Z,102605.84
2023-03-04T01:35:58.907Z,102598.84
2023-03-04T01:38:25.940Z,102591.63
2023-03-04T01:40:53.725Z,102592.81
2023-03-04T01:43:28.283Z,102596.03
2023-03-04T01:45:56.753Z,102589.63
2023-03-04T01:48:31.834Z,102586.59
2023-03-04T01:50:59.584Z,102582.78
2023-03-04T01:53:28.112Z,102574.94
2023-03-04T01:56:02.620Z,102575.75
2023-03-04T01:58:32.480Z,102580.97
2023-03-04T02:00:59.637Z,102572.03
2023-03-04T02:03:26.799Z,102571.94
2023-03-04T02:05:55.383Z,102564.59
2023-03-04T02:08:24.924Z,102563.50
2023-03-04T02:10:52.830Z,102560.69
2023-03-04T02:13:19.938Z,102563.72
2023-03-04T02:15:47.756Z,102558.47
2023-03-04T02:18:22.130Z,102552.03
2023-03-04T02:21:00.472Z,102556.06
2023-03-04T02:24:24.784Z,102547.84
2023-03-04T02:26:51.682Z,102551.47
2023-03-04T02:29:19.076Z,102548.84
2023-03-04T02:31:49.135Z,102550.75
2023-03-04T02:34:22.280Z,102553.25
2023-03-04T02:36:52.420Z,102544.53
2023-03-04T02:39:30.335Z,102542.72
2023-03-04T02:41:57.812Z,102548.66
2023-03-04T02:44:31.905Z,102546.41
2023-03-04T02:46:59.515Z,102538.09
2023-03-04T02:49:29.831Z,102536.50
2023-03-04T02:52:05.922Z,102536.78
2023-03-04T02:54:33.257Z,102536.50
2023-03-04T02:57:04.759Z,102537.41
2023-03-04T02:59:31.998Z,102534.97
2023-03-04T03:01:59.015Z,102530.25
2023-03-04T03:04:27.004Z,102533.28
2023-03-04T03:06:54.466Z,102528.78
2023-03-04T03:09:21.622Z,102533.19
2023-03-04T03:11:48.640Z,102524.03
2023-03-04T03:14:15.904Z,102526.56
2023-03-04T03:16:43.413Z,102513.00
2023-03-04T03:19:10.392Z,102520.13
2023-03-04T03:21:37.410Z,102523.31
2023-03-04T03:24:04.536Z,102515.63
2023-03-04T03:26:31.503Z,102517.22
2023-03-04T03:28:58.542Z,102518.09
2023-03-04T03:31:25.526Z,102516.94
2023-03-04T03:33:52.499Z,102515.22
2023-03-04T03:36:19.502Z,102516.94
2023-03-04T03:38:46.500Z,102512.50
2023-03-04T03:41:13.479Z,102515.31
2023-03-04T03:43:40.589Z,102518.00
2023-03-04T03:46:07.616Z,102523.13
2023-03-04T03:48:34.606Z,102522.94
2023-03-04T03:51:01.811Z,102523.38
2023-03-04T03:53:28.765Z,102518.09
2023-03-04T03:55:55.745Z,102516.13
2023-03-04T03:58:23.211Z,102516.53
2023-03-04T04:00:50.242Z,102523.22
2023-03-04T04:03:18.119Z,102522.34
2023-03-04T04:05:45.228Z,102514.13
2023-03-04T04:08:17.708Z,102521.97
2023-03-04T04:10:45.260Z,102524.38
2023-03-04T04:13:12.536Z,102516.94
2023-03-04T04:15:40.053Z,102521.53
2023-03-04T04:18:08.243Z,102526.38
2023-03-04T04:20:36.655Z,102519.06
2023-03-04T04:23:04.185Z,102520.25
2023-03-04T04:25:31.335Z,102516.72
2023-03-04T04:27:58.288Z,102521.34
2023-03-04T04:30:25.520Z,102525.47
2023-03-04T04:32:52.708Z,102530.50
2023-03-04T04:35:19.818Z,102525.28
2023-03-04T04:37:46.893Z,102524.47
2023-03-04T04:40:14.277Z,102522.75
2023-03-04T04:42:41.280Z,102523.84
2023-03-04T04:45:09.122Z,102518.63
2023-03-04T04:47:36.231Z,102519.34
2023-03-04T04:50:03.564Z,102524.56
2023-03-04T04:52:30.726Z,102530.50
2023-03-04T04:54:57.771Z,102528.59
2023-03-04T04:57:24.990Z,102530.78
2023-03-04T04:59:52.057Z,102525.56
2023-03-04T05:02:19.025Z,102520.72
2023-03-04T05:04:46.186Z,102528.38
2023-03-04T05:07:13.218Z,102531.59
2023-03-04T05:09:40.274Z,102524.94
2023-03-04T05:12:07.246Z,102522.94
2023-03-04T05:14:34.240Z,102528.97
2023-03-04T05:17:01.300Z,102528.06
2023-03-04T05:19:28.301Z,102526.56
2023-03-04T05:21:56.478Z,102525.66
2023-03-04T05:24:23.585Z,102530.69
2023-03-04T05:26:50.592Z,102531.69
2023-03-04T05:29:17.540Z,102534.81
2023-03-04T05:31:44.516Z,102528.78
2023-03-04T05:34:11.588Z,102529.59
2023-03-04T05:36:38.898Z,102520.25
2023-03-04T05:39:06.056Z,102526.28
2023-03-04T05:41:33.032Z,102528.97
2023-03-04T05:44:01.454Z,102533.19
2023-03-04T05:46:28.677Z,102536.81
2023-03-04T05:48:55.890Z,102532.31
2023-03-04T05:51:23.723Z,102531.59
2023-03-04T05:53:50.858Z,102533.09
2023-03-04T05:56:20.573Z,102536.81
2023-03-04T05:58:47.968Z,102534.81
2023-03-04T06:01:15.886Z,102530.50
2023-03-04T06:03:43.667Z,102536.72
2023-03-04T06:06:10.812Z,102539.00
2023-03-04T06:08:37.799Z,102532.59
2023-03-04T06:11:05.743Z,102531.78
2023-03-04T06:13:33.546Z,102533.19
2023-03-04T06:16:01.067Z,102536.53
2023-03-04T06:18:29.267Z,102538.34
2023-03-04T06:20:58.853Z,102544.75
2023-03-04T06:23:27.539Z,102534.81
2023-03-04T06:25:56.795Z,102538.84
2023-03-04T06:28:24.306Z,102543.47
2023-03-04T06:30:56.632Z,102536.06
2023-03-04T06:33:24.444Z,102538.13
2023-03-04T06:35:56.217Z,102543.50
2023-03-04T06:38:24.323Z,102548.72
2023-03-04T06:40:51.349Z,102543.47
2023-03-04T06:43:19.190Z,102552.72
2023-03-04T06:45:46.687Z,102552.72
2023-03-04T06:48:13.706Z,102554.31
2023-03-04T06:50:40.977Z,102558.72
2023-03-04T06:53:07.919Z,102555.66
2023-03-04T06:55:34.989Z,102555.75
2023-03-04T06:58:02.101Z,102559.44
2023-03-04T07:00:29.204Z,102560.53
2023-03-04T07:02:57.821Z,102566.56
2023-03-04T07:05:24.895Z,102567.75
2023-03-04T07:07:51.834Z,102563.16
2023-03-04T07:10:19.814Z,102566.53
2023-03-04T07:12:47.177Z,102558.94
2023-03-04T07:15:14.306Z,102564.25
2023-03-04T07:17:41.536Z,102561.81
2023-03-04T07:20:09.628Z,102578.38
2023-03-04T07:22:36.974Z,102574.06
2023-03-04T07:25:05.681Z,102587.31
2023-03-04T07:27:32.893Z,102592.44
2023-03-04T07:29:59.948Z,102588.13
2023-03-04T07:32:27.091Z,102592.44
2023-03-04T07:34:54.253Z,102603.59
2023-03-04T07:37:21.219Z,102600.97
2023-03-04T07:39:48.165Z,102601.25
2023-03-04T07:42:15.159Z,102606.28
2023-03-04T07:44:42.073Z,102602.69
2023-03-04T07:47:09.238Z,102609.03
2023-03-04T07:49:36.548Z,102606.00
2023-03-04T07:52:05.550Z,102617.34
2023-03-04T07:54:32.715Z,102612.31
2023-03-04T07:56:59.703Z,102617.63
2023-03-04T07:59:26.694Z,102622.84
2023-03-04T08:01:53.690Z,102618.63
2023-03-04T08:04:20.749Z,102619.25
2023-03-04T08:06:48.877Z,102626.84
2023-03-04T08:09:15.967Z,102620.72
2023-03-04T08:11:43.640Z,102619.72
2023-03-04T08:14:12.975Z,102624.66
2023-03-04T08:16:40.214Z,102616.41
2023-03-04T08:19:08.507Z,102623.34
2023-03-04T08:21:35.937Z,102626.84
2023-03-04T08:24:08.456Z,102625.94
2023-03-04T08:26:43.655Z,102635.81
2023-03-04T08:29:16.945Z,102632.69
2023-03-04T08:31:48.815Z,102633.19
2023-03-04T08:34:17.045Z,102628.78
2023-03-04T08:36:44.224Z,102625.56
2023-03-04T08:39:16.604Z,102632.19
2023-03-04T08:41:43.651Z,102631.78
2023-03-04T08:44:11.028Z,102631.59
2023-03-04T08:46:40.219Z,102629.53
2023-03-04T08:49:07.749Z,102621.91
2023-03-04T08:51:36.040Z,102623.59
2023-03-04T08:54:06.494Z,102621.72
2023-03-04T08:56:33.477Z,102628.03
2023-03-04T08:59:00.521Z,102618.38
2023-03-04T09:01:27.735Z,102623.09
2023-03-04T09:03:55.319Z,102627.50
2023-03-04T09:06:22.331Z,102608.41
2023-03-04T09:08:49.326Z,102620.16
2023-03-04T09:11:17.138Z,102620.06
2023-03-04T09:13:44.319Z,102620.88
2023-03-04T09:16:14.062Z,102621.00
2023-03-04T09:18:42.219Z,102618.56
2023-03-04T09:21:09.876Z,102614.34
2023-03-04T09:23:37.374Z,102616.41
2023-03-04T09:26:23.679Z,102618.56
2023-03-04T09:28:57.346Z,102608.41
2023-03-04T09:31:25.912Z,102612.50
2023-03-04T09:33:54.069Z,102612.50
2023-03-04T09:36:22.227Z,102609.91
2023-03-04T09:38:49.591Z,102610.13
2023-03-04T09:41:25.430Z,102610.53
2023-03-04T09:43:54.470Z,102601.25
2023-03-04T09:46:36.124Z,102610.28
2023-03-04T09:49:06.794Z,102616.00
2023-03-04T09:51:49.061Z,102610.59
2023-03-04T09:54:37.739Z,102604.34
2023-03-04T09:57:34.835Z,102599.66
2023-03-04T10:00:09.379Z,102600.28
2023-03-04T10:03:01.185Z,102604.63
2023-03-04T10:05:32.723Z,102595.25
2023-03-04T10:08:48.765Z,102599.03
2023-03-04T10:11:32.762Z,102604.00
2023-03-04T10:14:21.323Z,102592.19
2023-03-04T10:17:08.098Z,102598.97
2023-03-04T10:20:23.622Z,102598.88
2023-03-04T10:22:59.995Z,102595.75
2023-03-04T10:25:33.344Z,102592.06
2023-03-04T10:28:11.450Z,102588.47
2023-03-04T10:31:09.251Z,102581.94
2023-03-04T10:33:39.623Z,102590.44
2023-03-04T10:36:22.279Z,102581.63
2023-03-04T10:38:53.684Z,102579.81
2023-03-04T10:41:26.125Z,102577.19
2023-03-04T10:44:11.507Z,102577.97
2023-03-04T10:46:46.020Z,102580.88
2023-03-04T10:49:17.121Z,102586.34
2023-03-04T10:51:52.796Z,102578.53
2023-03-04T10:54:40.876Z,102580.75
2023-03-04T10:57:28.558Z,102569.06
2023-03-04T11:00:00.870Z,102576.13
2023-03-04T11:02:34.802Z,102577.25
2023-03-04T11:05:20.355Z,102571.66
2023-03-04T11:07:57.349Z,102571.13
2023-03-04T11:10:38.208Z,102567.94
2023-03-04T11:13:25.037Z,102564.56
2023-03-04T11:16:04.087Z,102559.16
2023-03-04T11:18:49.220Z,102557.13
2023-03-04T11:21:28.829Z,102559.63
2023-03-04T11:24:29.949Z,102555.09
2023-03-04T11:27:04.027Z,102534.66
2023-03-04T11:30:04.804Z,102527.75
2023-03-04T11:32:40.556Z,102539.50
2023-03-04T11:35:58.523Z,102527.06
2023-03-04T11:38:39.716Z,102537.97
2023-03-04T11:41:19.352Z,102535.91
2023-03-04T11:43:47.439Z,102531.19
2023-03-04T11:46:38.958Z,102531.94
2023-03-04T11:49:28.768Z,102522.06
2023-03-04T11:52:13.367Z,102517.94
2023-03-04T11:54:58.940Z,102512.44
2023-03-04T11:57:40.931Z,102511.53
2023-03-04T12:00:26.425Z,102513.22
2023-03-04T12:03:13.998Z,102505.16
2023-03-04T12:06:02.962Z,102504.16
2023-03-04T12:09:26.411Z,102501.56
2023-03-04T12:12:14.780Z,102503.66
2023-03-04T12:14:59.193Z,102489.63
2023-03-04T12:18:29.076Z,102495.41
2023-03-04T12:21:11.862Z,102489.88
2023-03-04T12:24:06.206Z,102484.81
2023-03-04T12:27:20.868Z,102485.03
2023-03-04T12:30:17.668Z,102477.91
2023-03-04T12:33:05.325Z,102464.91
2023-03-04T12:35:41.448Z,102464.50
2023-03-04T12:38:56.048Z,102453.41
2023-03-04T12:42:07.199Z,102451.94
2023-03-04T12:45:15.978Z,102451.59
2023-03-04T12:48:29.548Z,102441.84
2023-03-04T12:51:27.254Z,102421.59
2023-03-04T12:54:18.119Z,102423.88
2023-03-04T12:57:04.942Z,102419.34
2023-03-04T12:59:42.608Z,102423.81
2023-03-04T13:02:44.850Z,102411.91
2023-03-04T13:05:29.097Z,102418.59
2023-03-04T13:08:32.335Z,102420.06
2023-03-04T13:11:24.450Z,102412.84
2023-03-04T13:14:07.479Z,102416.22
2023-03-04T13:16:45.784Z,102411.16
2023-03-04T13:19:47.255Z,102402.59
2023-03-04T13:22:38.196Z,102407.53
2023-03-04T13:25:35.873Z,102412.13
2023-03-04T13:28:02.879Z,102400.94
2023-03-04T13:30:32.845Z,102399.63
2023-03-04T13:33:22.495Z,102400.88
2023-03-04T13:36:06.329Z,102401.34
2023-03-04T13:38:37.433Z,102402.56
2023-03-04T13:41:32.276Z,102401.94
2023-03-04T13:44:26.488Z,102402.66
2023-03-04T13:46:55.482Z,102404.78
2023-03-04T13:49:24.720Z,102393.44
2023-03-04T13:51:55.118Z,102391.66
2023-03-04T13:54:33.777Z,102392.66
2023-03-04T13:57:00.676Z,102383.91
2023-03-04T13:59:44.805Z,102391.97
2023-03-04T14:02:22.999Z,102393.44
2023-03-04T14:05:02.470Z,102391.66
2023-03-04T14:07:36.746Z,102391.50
2023-03-04T14:10:12.954Z,102383.53
2023-03-04T14:12:54.677Z,102376.72
2023-03-04T14:15:30.969Z,102381.03
2023-03-04T14:18:06.981Z,102375.50
2023-03-04T14:20:39.319Z,102367.41
2023-03-04T14:23:32.914Z,102369.88
2023-03-04T14:26:17.696Z,102373.16
2023-03-04T14:28:52.704Z,102359.28
2023-03-04T14:31:27.582Z,102363.59
2023-03-04T14:33:59.906Z,102354.88
2023-03-04T14:36:36.740Z,102348.03
2023-03-04T14:39:07.292Z,102361.50
2023-03-04T14:41:41.405Z,102359.69
2023-03-04T14:44:38.088Z,102357.00
2023-03-04T14:47:13.829Z,102350.59
2023-03-04T14:49:41.317Z,102350.34
2023-03-04T14:52:34.961Z,102346.59
2023-03-04T14:55:17.949Z,102339.06
2023-03-04T14:57:59.185Z,102335.66
2023-03-04T15:00:34.445Z,102337.19
2023-03-04T15:03:21.622Z,102333.88
2023-03-04T15:05:49.273Z,102331.25
2023-03-04T15:08:38.765Z,102323.50
2023-03-04T15:11:08.006Z,102325.69
2023-03-04T15:13:52.107Z,102325.81
2023-03-04T15:16:26.521Z,102319.53
2023-03-04T15:19:24.411Z,102318.47
2023-03-04T15:21:53.610Z,102320.56
2023-03-04T15:24:20.564Z,102314.31
2023-03-04T15:26:50.209Z,102313.94
2023-03-04T15:29:20.090Z,102308.28
2023-03-04T15:31:48.798Z,102319.47
2023-03-04T15:34:18.560Z,102310.34
2023-03-04T15:36:50.225Z,102297.81
2023-03-04T15:39:19.380Z,102304.00
2023-03-04T15:41:51.957Z,102305.09
2023-03-04T15:44:19.124Z,102299.84
2023-03-04T15:46:46.133Z,102293.41
2023-03-04T15:49:13.201Z,102299.88
2023-03-04T15:51:40.555Z,102295.34
2023-03-04T15:54:13.986Z,102293.66
2023-03-04T15:56:41.247Z,102296.41
2023-03-04T15:59:14.462Z,102294.22
2023-03-04T16:01:43.354Z,102284.19
2023-03-04T16:04:19.598Z,102290.63
2023-03-04T16:06:48.673Z,102285.16
2023-03-04T16:09:19.767Z,102283.19
2023-03-04T16:11:50.844Z,102295.38
2023-03-04T16:14:18.069Z,102284.38
2023-03-04T16:16:46.949Z,102281.84
2023-03-04T16:19:15.173Z,102282.41
2023-03-04T16:21:42.316Z,102288.91
2023-03-04T16:24:17.879Z,102281.22
2023-03-04T16:26:45.176Z,102286.16
2023-03-04T16:29:14.586Z,102280.09
2023-03-04T16:31:43.925Z,102284.84
2023-03-04T16:34:10.932Z,102279.47
2023-03-04T16:36:37.937Z,102284.69
2023-03-04T16:39:12.930Z,102279.66
2023-03-04T16:41:39.937Z,102284.38
2023-03-04T16:44:09.139Z,102286.03
2023-03-04T16:46:36.205Z,102289.63
2023-03-04T16:49:03.177Z,102290.94
2023-03-04T16:51:35.605Z,102279.41
2023-03-04T16:54:02.844Z,102287.34
2023-03-04T16:56:29.870Z,102296.63
2023-03-04T16:58:57.059Z,102290.69
2023-03-04T17:01:27.595Z,102295.50
2023-03-04T17:03:56.204Z,102292.25
2023-03-04T17:06:24.203Z,102289.59
2023-03-04T17:08:51.790Z,102294.88
2023-03-04T17:11:22.037Z,102295.81
2023-03-04T17:13:50.105Z,102293.91
2023-03-04T17:16:17.703Z,102295.13
2023-03-04T17:18:47.382Z,102289.75
2023-03-04T17:21:21.800Z,102297.41
2023-03-04T17:23:49.063Z,102294.81
2023-03-04T17:26:22.516Z,102297.66
2023-03-04T17:28:51.646Z,102304.88
2023-03-04T17:31:20.909Z,102301.91
2023-03-04T17:33:51.056Z,102299.88
2023-03-04T17:36:19.566Z,102298.50
2023-03-04T17:38:48.310Z,102301.72
2023-03-04T17:41:18.264Z,102303.50
2023-03-04T17:43:47.872Z,102310.03
2023-03-04T17:46:19.857Z,102304.53
2023-03-04T17:48:46.970Z,102310.75
2023-03-04T17:51:16.353Z,102319.28
2023-03-04T17:53:43.368Z,102323.13
2023-03-04T17:56:12.652Z,102319.47
2023-03-04T17:58:40.294Z,102312.06
2023-03-04T18:01:20.317Z,102326.69
2023-03-04T18:03:48.490Z,102322.31
2023-03-04T18:06:15.470Z,102330.22
2023-03-04T18:08:42.792Z,102330.31
2023-03-04T18:11:10.448Z,102323.06
2023-03-04T18:13:42.392Z,102337.44
2023-03-04T18:16:11.787Z,102325.81
2023-03-04T18:18:38.848Z,102331.31
2023-03-04T18:21:06.541Z,102326.50
2023-03-04T18:23:34.024Z,102332.41
2023-03-04T18:26:02.504Z,102331.19
2023-03-04T18:28:29.746Z,102320.78
2023-03-04T18:30:57.103Z,102325.25
2023-03-04T18:33:24.387Z,102331.31
2023-03-04T18:35:56.669Z,102326.88
2023-03-04T18:38:23.735Z,102325.63
2023-03-04T18:40:54.134Z,102326.66
2023-03-04T18:43:26.332Z,102328.91
2023-03-04T18:46:05.825Z,102330.91
2023-03-04T18:48:41.907Z,102324.22
2023-03-04T18:51:08.967Z,102330.88
2023-03-04T18:53:35.910Z,102326.16
2023-03-04T18:56:39.907Z,102328.69
2023-03-04T18:59:27.885Z,102324.78
2023-03-04T19:01:55.339Z,102328.00
2023-03-04T19:04:26.354Z,102328.13
2023-03-04T19:06:54.014Z,102327.34
2023-03-04T19:09:21.106Z,102323.78
2023-03-04T19:11:48.065Z,102321.38
2023-03-04T19:14:15.101Z,102323.06
2023-03-04T19:16:44.755Z,102316.03
2023-03-04T19:19:13.197Z,102314.81
2023-03-04T19:21:40.361Z,102315.91
2023-03-04T19:24:08.054Z,102310.47
2023-03-04T19:26:35.150Z,102315.19
2023-03-04T19:29:02.199Z,102310.03
2023-03-04T19:31:29.248Z,102309.44
2023-03-04T19:33:56.219Z,102313.22
2023-03-04T19:36:23.366Z,102306.97
2023-03-04T19:38:50.402Z,102314.31
2023-03-04T19:41:18.132Z,102316.78
2023-03-04T19:43:46.074Z,102303.13
2023-03-04T19:46:14.100Z,102306.00
2023-03-04T19:48:41.873Z,102317.59
2023-03-04T19:51:22.026Z,102309.28
2023-03-04T19:53:50.787Z,102315.84
2023-03-04T19:56:18.642Z,102314.28
2023-03-04T19:58:48.306Z,102312.72
2023-03-04T20:01:28.370Z,102308.03
2023-03-04T20:03:58.246Z,102318.16
2023-03-04T20:06:27.008Z,102320.09
2023-03-04T20:08:58.836Z,102316.06
2023-03-04T20:11:27.930Z,102315.75
2023-03-04T20:13:55.124Z,102318.63
2023-03-04T20:16:22.111Z,102325.03
2023-03-04T20:18:49.096Z,102306.50
2023-03-04T20:21:16.075Z,102314.31
2023-03-04T20:23:43.126Z,102315.59
2023-03-04T20:26:10.450Z,102311.38
2023-03-04T20:28:37.595Z,102317.22
2023-03-04T20:31:20.936Z,102308.44
2023-03-04T20:33:51.110Z,102311.88
2023-03-04T20:36:23.290Z,102316.56
2023-03-04T20:39:01.463Z,102343.47
2023-03-04T20:41:29.302Z,102342.00
2023-03-04T20:43:56.387Z,102343.13
2023-03-04T20:46:45.996Z,102355.88
2023-03-04T20:49:28.101Z,102351.31
2023-03-04T20:52:03.072Z,102347.53
2023-03-04T20:54:30.924Z,102349.34
2023-03-04T20:56:57.993Z,102355.03
2023-03-04T20:59:26.231Z,102349.72
2023-03-04T21:01:53.802Z,102348.00
2023-03-04T21:04:21.182Z,102338.00
2023-03-04T21:06:48.460Z,102339.19
2023-03-04T21:09:18.485Z,102341.53
2023-03-04T21:11:45.944Z,102337.81
2023-03-04T21:14:22.654Z,102341.22
2023-03-04T21:16:52.502Z,102343.84
2023-03-04T21:19:27.406Z,102341.88
2023-03-04T21:21:56.507Z,102331.59
2023-03-04T21:24:28.937Z,102336.38
2023-03-04T21:26:56.093Z,102328.72
2023-03-04T21:29:25.327Z,102327.47
2023-03-04T21:32:13.266Z,102322.34
2023-03-04T21:34:52.025Z,102330.19
2023-03-04T21:37:24.406Z,102322.09
2023-03-04T21:39:51.723Z,102329.75
2023-03-04T21:42:19.433Z,102326.13
2023-03-04T21:44:51.113Z,102327.31
2023-03-04T21:47:22.438Z,102329.75
2023-03-04T21:49:49.936Z,102327.66
2023-03-04T21:52:19.518Z,102324.94
2023-03-04T21:54:47.709Z,102316.22
2023-03-04T21:57:14.780Z,102319.53
2023-03-04T21:59:42.237Z,102327.53
2023-03-04T22:02:19.184Z,102315.53
2023-03-04T22:04:46.398Z,102317.91
2023-03-04T22:07:14.132Z,102317.75
2023-03-04T22:09:41.241Z,102321.06
2023-03-04T22:12:08.357Z,102320.81
2023-03-04T22:14:35.308Z,102312.63
2023-03-04T22:17:02.391Z,102317.28
2023-03-04T22:19:32.343Z,102314.50
2023-03-04T22:21:59.869Z,102309.91
2023-03-04T22:24:27.593Z,102308.66
2023-03-04T22:26:56.802Z,102315.47
2023-03-04T22:29:23.758Z,102317.34
2023-03-04T22:31:50.768Z,102319.69
2023-03-04T22:34:18.363Z,102320.59
2023-03-04T22:36:47.516Z,102314.38
2023-03-04T22:39:20.525Z,102310.88
2023-03-04T22:41:47.863Z,102313.81
2023-03-04T22:44:15.017Z,102313.03
2023-03-04T22:46:42.738Z,102314.44
2023-03-04T22:49:12.077Z,102309.31
2023-03-04T22:51:42.385Z,102310.63
2023-03-04T22:54:15.914Z,102307.03
2023-03-04T22:56:43.052Z,102297.16
2023-03-04T22:59:10.574Z,102296.25
2023-03-04T23:01:37.744Z,102304.88
2023-03-04T23:04:04.984Z,102298.66
2023-03-04T23:06:32.151Z,102295.16
2023-03-04T23:09:00.167Z,102288.06
2023-03-04T23:11:31.015Z,102287.44
2023-03-04T23:13:58.215Z,102287.16
2023-03-04T23:16:27.844Z,102296.19
2023-03-04T23:18:55.605Z,102293.47
2023-03-04T23:21:25.522Z,102295.56
2023-03-04T23:23:52.961Z,102279.03
2023-03-04T23:26:26.908Z,102286.75
2023-03-04T23:28:56.849Z,102284.84
2023-03-04T23:31:24.323Z,102283.88
2023-03-04T23:33:51.345Z,102285.47
2023-03-04T23:36:19.567Z,102287.66
2023-03-04T23:38:48.709Z,102277.75
2023-03-04T23:41:23.020Z,102271.53
2023-03-04T23:43:52.815Z,102272.25
2023-03-04T23:46:20.327Z,102276.03
2023-03-04T23:48:47.559Z,102274.06
2023-03-04T23:51:20.003Z,102269.03
2023-03-04T23:53:47.868Z,102260.59
2023-03-04T23:56:24.310Z,102264.81
2023-03-04T23:58:51.873Z,102263.63
